createdAt,value
2016-10-19T19:30:57.290Z,65.87
2016-10-19T19:31:14.100Z,65.80
2016-10-19T19:32:16.641Z,65.69
2016-10-19T19:33:13.732Z,65.65
2016-10-19T19:34:13.743Z,65.58
2016-10-19T19:35:13.897Z,65.56
2016-10-19T19:36:14.214Z,65.52
2016-10-19T19:37:15.435Z,65.47
2016-10-19T19:38:13.750Z,65.45
2016-10-19T19:39:14.115Z,65.45
2016-10-19T19:40:13.550Z,65.43
2016-10-19T19:41:13.932Z,65.36
2016-10-19T19:42:11.940Z,65.42
2016-10-19T19:43:13.980Z,65.69
2016-10-19T19:44:13.790Z,65.40
2016-10-19T19:45:14.162Z,65.30
2016-10-19T19:46:13.686Z,65.98
2016-10-19T19:47:14.480Z,65.43
2016-10-19T19:48:14.019Z,65.46
2016-10-19T19:49:13.561Z,65.55
2016-10-19T19:50:11.919Z,65.40
2016-10-19T19:51:14.262Z,64.95
2016-10-19T19:52:13.404Z,65.16
2016-10-19T19:53:10.805Z,65.79
2016-10-19T19:54:13.983Z,66.13
2016-10-19T19:55:14.477Z,65.92
2016-10-19T19:56:14.123Z,65.79
2016-10-19T19:57:13.897Z,65.60
2016-10-19T19:58:14.448Z,64.63
2016-10-19T19:59:14.206Z,64.16
2016-10-19T20:00:19.346Z,63.89
2016-10-19T20:01:13.903Z,63.98
2016-10-19T20:02:14.364Z,64.14
2016-10-19T20:03:14.275Z,64.44
2016-10-19T20:04:14.977Z,65.17
2016-10-19T20:05:13.859Z,65.26
2016-10-19T20:06:13.348Z,65.70
2016-10-19T20:07:14.002Z,65.75
2016-10-19T20:08:13.715Z,66.01
2016-10-19T20:09:15.522Z,65.92
2016-10-19T20:10:14.357Z,66.05
2016-10-19T20:11:13.822Z,66.30
2016-10-19T20:12:14.932Z,66.27
2016-10-19T20:13:12.728Z,66.42
2016-10-19T20:14:14.521Z,66.38
2016-10-19T20:15:14.330Z,66.54
2016-10-19T20:16:14.002Z,66.85
2016-10-19T20:17:14.327Z,66.67
2016-10-19T20:18:14.062Z,66.48
2016-10-19T20:19:13.599Z,65.94
2016-10-19T20:20:13.663Z,64.95
2016-10-19T20:21:14.470Z,66.07
2016-10-19T20:22:35.618Z,66.34
2016-10-19T20:23:14.144Z,66.43
2016-10-19T20:24:13.851Z,66.50
2016-10-19T20:25:14.725Z,66.70
2016-10-19T20:26:13.842Z,66.59
2016-10-19T20:27:15.539Z,66.44
2016-10-19T20:28:14.663Z,66.46
2016-10-19T20:29:13.438Z,66.49
2016-10-19T20:30:13.430Z,66.48
2016-10-19T20:31:13.934Z,66.61
2016-10-19T20:32:13.476Z,66.42
2016-10-19T20:33:14.448Z,65.57
2016-10-19T20:34:20.711Z,65.29
2016-10-19T20:35:14.164Z,65.14
2016-10-19T20:36:12.059Z,65.13
2016-10-19T20:37:12.723Z,64.94
2016-10-19T20:38:14.752Z,64.84
2016-10-19T20:39:14.125Z,65.14
2016-10-19T20:40:14.313Z,65.92
2016-10-19T20:41:13.029Z,65.85
2016-10-19T20:42:13.681Z,65.96
2016-10-19T20:43:13.603Z,66.04
2016-10-19T20:44:13.757Z,66.01
2016-10-19T20:45:13.552Z,65.95
2016-10-19T20:46:13.495Z,65.97
2016-10-19T20:47:12.834Z,66.04
2016-10-19T20:48:11.591Z,65.86
2016-10-19T20:49:12.534Z,64.88
2016-10-19T20:50:12.901Z,64.67
2016-10-19T20:51:13.753Z,64.52
2016-10-19T20:52:13.453Z,64.47
2016-10-19T20:53:13.071Z,64.42
2016-10-19T20:54:12.156Z,64.67
2016-10-19T20:55:12.811Z,65.44
2016-10-19T20:56:14.563Z,65.38
2016-10-19T20:57:12.890Z,62.63
2016-10-19T20:58:13.751Z,64.11
2016-10-19T20:59:12.672Z,64.59
2016-10-19T21:00:12.832Z,65.07
2016-10-19T21:01:11.059Z,65.26
2016-10-19T21:02:12.826Z,64.40
2016-10-19T21:03:14.871Z,64.47
2016-10-19T21:04:13.333Z,65.29
2016-10-19T21:05:12.372Z,65.32
2016-10-19T21:06:12.399Z,65.43
2016-10-19T21:07:12.976Z,65.49
2016-10-19T21:08:12.315Z,65.50
2016-10-19T21:09:13.869Z,65.52
2016-10-19T21:10:14.933Z,65.53
2016-10-19T21:11:11.164Z,65.58
2016-10-19T21:12:14.034Z,65.54
2016-10-19T21:13:12.955Z,65.48
2016-10-19T21:14:13.406Z,65.54
2016-10-19T21:15:15.743Z,65.57
2016-10-19T21:16:15.103Z,65.54
2016-10-19T21:17:18.529Z,65.56
2016-10-19T21:18:12.954Z,65.58
2016-10-19T21:19:12.420Z,65.60
2016-10-19T21:20:14.468Z,65.59
2016-10-19T21:21:13.264Z,65.63
2016-10-19T21:22:13.657Z,65.64
2016-10-19T21:23:10.975Z,65.65
2016-10-19T21:24:15.365Z,65.58
2016-10-19T21:25:14.641Z,65.63
2016-10-19T21:26:12.831Z,65.63
2016-10-19T21:27:13.338Z,65.63
2016-10-19T21:28:13.128Z,65.66
2016-10-19T21:29:15.471Z,65.64
2016-10-19T21:30:14.554Z,65.68
2016-10-19T21:31:12.549Z,65.69
2016-10-19T21:32:13.567Z,65.67
2016-10-19T21:33:13.246Z,65.70
2016-10-19T21:34:14.316Z,65.71
2016-10-19T21:35:12.938Z,65.71
2016-10-19T21:36:13.949Z,65.69
2016-10-19T21:37:13.246Z,65.68
2016-10-19T21:38:13.205Z,65.74
2016-10-19T21:39:13.297Z,65.76
2016-10-19T21:40:13.219Z,65.74
2016-10-19T21:41:13.047Z,65.74
2016-10-19T21:42:12.867Z,65.76
2016-10-19T21:43:13.338Z,65.77
2016-10-19T21:44:13.126Z,65.79
2016-10-19T21:45:12.738Z,65.76
2016-10-19T21:46:13.212Z,65.82
2016-10-19T21:47:13.028Z,65.84
2016-10-19T21:48:12.759Z,65.83
2016-10-19T21:49:12.920Z,65.79
2016-10-19T21:50:16.030Z,65.84
2016-10-19T21:51:17.991Z,65.83
2016-10-19T21:52:12.652Z,65.80
2016-10-19T21:53:13.327Z,65.83
2016-10-19T21:54:13.947Z,65.84
2016-10-19T21:55:17.607Z,65.85
2016-10-19T21:56:12.800Z,65.87
2016-10-19T21:57:13.533Z,65.90
2016-10-19T21:58:12.630Z,65.88
2016-10-19T21:59:11.547Z,65.89
2016-10-19T22:00:13.844Z,64.89
2016-10-19T22:01:13.608Z,64.72
2016-10-19T22:02:13.622Z,64.65
2016-10-19T22:03:14.517Z,64.61
2016-10-19T22:04:13.621Z,64.57
2016-10-19T22:05:14.403Z,64.56
2016-10-19T22:06:13.902Z,64.76
2016-10-19T22:07:19.186Z,65.54
2016-10-19T22:08:12.326Z,65.72
2016-10-19T22:09:19.701Z,65.80
2016-10-19T22:10:13.013Z,65.89
2016-10-19T22:11:12.757Z,65.92
2016-10-19T22:12:15.276Z,65.96
2016-10-19T22:13:12.767Z,65.97
2016-10-19T22:14:14.051Z,65.95
2016-10-19T22:15:12.161Z,65.97
2016-10-19T22:16:14.268Z,65.99
2016-10-19T22:17:12.979Z,65.99
2016-10-19T22:18:12.625Z,66.02
2016-10-19T22:19:14.142Z,65.98
2016-10-19T22:20:14.745Z,65.91
2016-10-19T22:21:13.572Z,65.92
2016-10-19T22:22:14.149Z,65.94
2016-10-19T22:23:15.579Z,65.96
2016-10-19T22:24:13.358Z,66.09
2016-10-19T22:25:12.869Z,66.12
2016-10-19T22:26:12.968Z,66.07
2016-10-19T22:27:13.959Z,66.12
2016-10-19T22:28:18.975Z,66.15
2016-10-19T22:29:10.796Z,66.10
2016-10-19T22:30:12.940Z,66.10
2016-10-19T22:31:15.820Z,66.07
2016-10-19T22:32:13.864Z,66.16
2016-10-19T22:33:13.666Z,66.22
2016-10-19T22:34:15.333Z,66.20
2016-10-19T22:35:13.407Z,66.20
2016-10-19T22:36:17.090Z,66.23
2016-10-19T22:37:09.843Z,66.25
2016-10-19T22:38:14.279Z,66.17
2016-10-19T22:39:13.057Z,66.18
2016-10-19T22:40:11.983Z,66.27
2016-10-19T22:41:13.200Z,66.32
2016-10-19T22:42:13.381Z,66.34
2016-10-19T22:43:13.384Z,66.25
2016-10-19T22:44:13.198Z,66.29
2016-10-19T22:45:13.206Z,66.30
2016-10-19T22:46:12.988Z,66.31
2016-10-19T22:47:12.160Z,66.34
2016-10-19T22:48:14.058Z,66.40
2016-10-19T22:49:12.842Z,66.40
2016-10-19T22:50:13.897Z,66.37
2016-10-19T22:51:12.880Z,66.29
2016-10-19T22:52:12.942Z,66.36
2016-10-19T22:53:12.643Z,66.37
2016-10-19T22:54:20.133Z,66.34
2016-10-19T22:55:12.631Z,66.39
2016-10-19T22:56:16.328Z,66.42
2016-10-19T22:57:13.229Z,66.37
2016-10-19T22:58:13.324Z,66.43
2016-10-19T22:59:17.174Z,66.39
2016-10-19T23:00:12.962Z,66.35
2016-10-19T23:01:12.299Z,66.33
2016-10-19T23:02:13.035Z,66.41
2016-10-19T23:03:11.078Z,66.52
2016-10-19T23:04:11.038Z,66.48
2016-10-19T23:05:12.256Z,66.43
2016-10-19T23:06:12.350Z,66.46
2016-10-19T23:07:13.082Z,66.48
2016-10-19T23:08:12.404Z,66.46
2016-10-19T23:09:13.741Z,66.46
2016-10-19T23:10:12.807Z,66.52
2016-10-19T23:11:14.066Z,66.49
2016-10-19T23:12:12.056Z,66.53
2016-10-19T23:13:13.298Z,66.53
2016-10-19T23:14:12.244Z,66.47
2016-10-19T23:15:10.882Z,66.52
2016-10-19T23:16:12.949Z,66.50
2016-10-19T23:17:13.046Z,66.53
2016-10-19T23:18:11.938Z,66.49
2016-10-19T23:19:11.953Z,66.48
2016-10-19T23:20:13.910Z,66.50
2016-10-19T23:21:13.572Z,66.52
2016-10-19T23:22:13.774Z,66.57
2016-10-19T23:23:14.079Z,66.35
2016-10-19T23:24:13.978Z,65.44
2016-10-19T23:25:12.594Z,65.32
2016-10-19T23:26:12.858Z,65.23
2016-10-19T23:27:12.945Z,65.18
2016-10-19T23:28:13.060Z,65.41
2016-10-19T23:29:17.285Z,66.17
2016-10-19T23:30:15.297Z,66.33
2016-10-19T23:31:12.968Z,66.45
2016-10-19T23:32:12.625Z,66.45
2016-10-19T23:33:12.619Z,66.41
2016-10-19T23:34:13.333Z,66.45
2016-10-19T23:35:11.356Z,66.52
2016-10-19T23:36:18.632Z,66.56
2016-10-19T23:37:13.804Z,66.54
2016-10-19T23:38:12.654Z,66.53
2016-10-19T23:39:12.570Z,66.58
2016-10-19T23:40:12.595Z,66.56
2016-10-19T23:41:13.302Z,66.61
2016-10-19T23:42:09.623Z,66.63
2016-10-19T23:43:13.478Z,66.61
2016-10-19T23:44:10.876Z,66.61
2016-10-19T23:45:18.513Z,66.63
2016-10-19T23:46:12.431Z,66.63
2016-10-19T23:47:12.314Z,66.64
2016-10-19T23:48:12.309Z,66.62
2016-10-19T23:49:13.184Z,66.67
2016-10-19T23:50:12.823Z,66.61
2016-10-19T23:51:12.872Z,66.69
2016-10-19T23:52:13.424Z,66.68
2016-10-19T23:53:12.602Z,66.68
2016-10-19T23:54:13.096Z,66.72
2016-10-19T23:55:12.504Z,66.71
2016-10-19T23:56:12.392Z,66.75
2016-10-19T23:57:12.402Z,66.74
2016-10-19T23:58:13.362Z,66.73
2016-10-19T23:59:11.319Z,66.72
